Time,TemperatureF,DewpointF,PressureIn,WindDirection,WindDirectionDegrees,WindSpeedMPH,WindSpeedGustMPH,Humidity,HourlyPrecipIn,Conditions,Clouds,dailyrainin,SoftwareType,DateUTC
2013-01-02 00:02:00,54.4,52.2,-100.00,NNE,22,3.7,7.7,92,0.00,,,0.00,,2013-01-02 06:02:00,
2013-01-02 00:07:00,54.5,52.4,-100.00,SE,135,3.5,6.8,92,0.00,,,0.00,,2013-01-02 06:07:00,
2013-01-02 00:12:00,54.4,52.2,-100.00,SSW,202,3.9,7.3,92,0.00,,,0.00,,2013-01-02 06:12:00,
2013-01-02 00:17:00,54.4,52.1,-100.00,SSW,202,4.6,7.7,91,0.00,,,0.00,,2013-01-02 06:17:00,
2013-01-02 00:22:00,54.3,52.4,-100.00,SSW,202,5.1,7.7,93,0.00,,,0.00,,2013-01-02 06:22:00,
2013-01-02 00:27:00,54.2,52.1,-100.00,South,180,4.0,7.5,92,0.00,,,0.00,,2013-01-02 06:27:00,
2013-01-02 00:32:00,54.0,52.2,-100.00,SSE,157,3.0,5.6,93,0.00,,,0.00,,2013-01-02 06:32:00,
2013-01-02 00:37:00,54.2,52.0,-100.00,South,180,3.2,6.2,92,0.00,,,0.00,,2013-01-02 06:37:00,
2013-01-02 00:42:00,54.2,52.7,-100.00,SSW,202,4.1,8.6,94,0.00,,,0.00,,2013-01-02 06:42:00,
2013-01-02 00:47:00,54.2,51.5,-100.00,SSW,202,4.7,8.6,90,0.00,,,0.00,,2013-01-02 06:47:00,
2013-01-02 00:52:00,54.2,52.0,-100.00,South,180,4.5,7.9,92,0.00,,,0.00,,2013-01-02 06:52:00,
2013-01-02 00:57:00,54.2,51.9,-100.00,South,180,4.3,8.8,91,0.00,,,0.00,,2013-01-02 06:57:00,
2013-01-02 01:03:00,54.0,51.6,-100.00,South,180,4.4,8.5,91,0.00,,,0.00,,2013-01-02 07:03:00,
2013-01-02 01:08:00,54.0,51.7,-100.00,SSW,202,4.5,8.5,91,0.00,,,0.00,,2013-01-02 07:08:00,
2013-01-02 01:13:00,53.9,51.6,-100.00,SSE,157,3.5,7.4,91,0.00,,,0.00,,2013-01-02 07:13:00,
2013-01-02 01:18:00,53.9,51.6,-100.00,SSE,157,3.3,7.0,91,0.00,,,0.00,,2013-01-02 07:18:00,
2013-01-02 01:23:00,53.9,51.6,-100.00,South,180,3.9,6.6,91,0.00,,,0.00,,2013-01-02 07:23:00,
2013-01-02 01:28:00,53.8,51.4,-100.00,SSW,202,4.2,6.6,91,0.00,,,0.00,,2013-01-02 07:28:00,
2013-01-02 01:33:00,53.8,52.1,-100.00,SSW,202,4.1,7.8,93,0.00,,,0.00,,2013-01-02 07:33:00,
2013-01-02 01:38:00,53.7,51.3,-100.00,South,180,3.9,7.8,91,0.00,,,0.00,,2013-01-02 07:38:00,
2013-01-02 01:43:00,53.7,51.1,-100.00,SSE,157,4.0,7.1,90,0.00,,,0.00,,2013-01-02 07:43:00,
2013-01-02 01:48:00,53.7,50.6,-100.00,SSE,157,4.5,7.7,89,0.00,,,0.00,,2013-01-02 07:48:00,
2013-01-02 01:53:00,53.6,50.9,-100.00,South,180,4.3,7.8,90,0.00,,,0.00,,2013-01-02 07:53:00,
2013-01-02 01:58:00,53.4,51.0,-100.00,SSW,202,4.4,9.6,91,0.00,,,0.00,,2013-01-02 07:58:00,
2013-01-02 02:03:00,53.3,51.2,-100.00,SSW,202,3.9,9.6,92,0.00,,,0.00,,2013-01-02 08:03:00,
2013-01-02 02:08:00,53.2,50.7,-100.00,SSW,202,3.5,8.6,91,0.00,,,0.00,,2013-01-02 08:08:00,
2013-01-02 02:13:00,53.0,50.7,-100.00,South,180,3.9,7.0,91,0.00,,,0.00,,2013-01-02 08:13:00,
2013-01-02 02:18:00,53.0,50.5,-100.00,South,180,4.4,8.4,90,0.00,,,0.00,,2013-01-02 08:18:00,
2013-01-02 02:23:00,52.8,50.1,-100.00,South,180,4.8,8.4,90,0.00,,,0.00,,2013-01-02 08:23:00,
2013-01-02 02:28:00,52.6,49.8,-100.00,South,180,5.2,10.4,90,0.00,,,0.00,,2013-01-02 08:28:00,
2013-01-02 02:33:00,52.5,49.9,-100.00,SSE,157,4.8,10.4,90,0.00,,,0.00,,2013-01-02 08:33:00,
2013-01-02 02:38:00,52.4,49.8,-100.00,South,180,4.6,9.3,90,0.00,,,0.00,,2013-01-02 08:38:00,
2013-01-02 02:43:00,52.4,49.7,-100.00,South,180,4.6,9.3,90,0.00,,,0.00,,2013-01-02 08:43:00,
2013-01-02 02:48:00,52.4,50.2,-100.00,SE,135,3.8,9.6,92,0.00,,,0.00,,2013-01-02 08:48:00,
2013-01-02 02:53:00,52.1,49.5,-100.00,SE,135,4.1,7.4,90,0.00,,,0.00,,2013-01-02 08:53:00,
2013-01-02 02:58:00,52.1,49.1,-100.00,SSE,157,5.0,10.7,89,0.00,,,0.00,,2013-01-02 08:58:00,
2013-01-02 03:03:00,52.2,49.5,-100.00,SE,135,3.9,8.9,90,0.00,,,0.00,,2013-01-02 09:03:00,
2013-01-02 03:08:00,52.2,49.6,-100.00,SE,135,2.9,5.9,90,0.00,,,0.00,,2013-01-02 09:08:00,
2013-01-02 03:13:00,52.0,49.4,-100.00,SSE,157,2.9,6.0,90,0.00,,,0.00,,2013-01-02 09:13:00,
2013-01-02 03:18:00,52.0,48.9,-100.00,SSE,157,3.4,6.2,88,0.00,,,0.00,,2013-01-02 09:18:00,
2013-01-02 03:23:00,52.0,49.4,-100.00,South,180,3.1,6.5,90,0.00,,,0.00,,2013-01-02 09:23:00,
2013-01-02 03:28:00,51.9,49.4,-100.00,SSW,202,3.7,7.3,91,0.00,,,0.00,,2013-01-02 09:28:00,
2013-01-02 03:34:00,51.9,48.9,-100.00,SSW,202,4.3,8.3,89,0.00,,,0.00,,2013-01-02 09:34:00,
2013-01-02 03:39:00,51.7,49.2,-100.00,South,180,4.1,8.3,91,0.00,,,0.00,,2013-01-02 09:39:00,
2013-01-02 03:44:00,51.3,49.3,-100.00,South,180,4.1,8.8,92,0.00,,,0.00,,2013-01-02 09:44:00,
2013-01-02 03:49:00,51.1,49.2,-100.00,SSE,157,4.0,7.7,92,0.00,,,0.00,,2013-01-02 09:49:00,
2013-01-02 03:54:00,51.0,49.1,-100.00,SSE,157,4.9,9.9,92,0.00,,,0.00,,2013-01-02 09:54:00,
2013-01-02 03:59:00,51.0,48.8,-100.00,South,180,4.8,9.9,91,0.00,,,0.00,,2013-01-02 09:59:00,
2013-01-02 04:04:00,50.9,48.7,-100.00,SE,135,4.1,9.0,91,0.00,,,0.00,,2013-01-02 10:04:00,
2013-01-02 04:09:00,50.7,48.5,-100.00,South,180,4.3,8.1,92,0.00,,,0.00,,2013-01-02 10:09:00,
2013-01-02 04:14:00,50.5,48.3,-100.00,SW,225,4.2,6.8,92,0.00,,,0.00,,2013-01-02 10:14:00,
2013-01-02 04:19:00,50.3,48.4,-100.00,South,180,4.6,8.7,92,0.00,,,0.00,,2013-01-02 10:19:00,
2013-01-02 04:24:00,50.3,48.3,-100.00,South,180,5.0,9.7,92,0.00,,,0.00,,2013-01-02 10:24:00,
2013-01-02 04:29:00,50.2,48.0,-100.00,South,180,4.5,9.7,91,0.00,,,0.00,,2013-01-02 10:29:00,
2013-01-02 04:34:00,50.2,47.5,-100.00,South,180,4.1,8.4,90,0.00,,,0.00,,2013-01-02 10:34:00,
2013-01-02 04:39:00,50.0,47.7,-100.00,South,180,4.5,10.3,91,0.00,,,0.00,,2013-01-02 10:39:00,
2013-01-02 04:44:00,49.9,47.5,-100.00,SSE,157,4.4,10.3,91,0.00,,,0.00,,2013-01-02 10:44:00,
2013-01-02 04:49:00,49.9,47.3,-100.00,South,180,4.6,8.7,90,0.00,,,0.00,,2013-01-02 10:49:00,
2013-01-02 04:54:00,49.9,46.8,-100.00,South,180,4.2,8.2,89,0.00,,,0.00,,2013-01-02 10:54:00,
2013-01-02 04:59:00,49.9,47.4,-100.00,South,180,4.3,8.4,90,0.00,,,0.00,,2013-01-02 10:59:00,
2013-01-02 05:04:00,49.8,47.2,-100.00,SE,135,3.8,9.2,90,0.00,,,0.00,,2013-01-02 11:04:00,
2013-01-02 05:09:00,49.8,46.8,-100.00,East,90,3.3,9.2,89,0.00,,,0.00,,2013-01-02 11:09:00,
2013-01-02 05:14:00,49.8,47.5,-100.00,SE,135,3.1,6.8,91,0.00,,,0.00,,2013-01-02 11:14:00,
2013-01-02 05:19:00,49.7,47.4,-100.00,SSE,157,3.1,5.8,91,0.00,,,0.00,,2013-01-02 11:19:00,
2013-01-02 05:24:00,49.8,47.4,-100.00,South,180,3.7,7.0,91,0.00,,,0.00,,2013-01-02 11:24:00,
2013-01-02 05:29:00,49.9,47.1,-100.00,South,180,3.3,7.0,89,0.00,,,0.00,,2013-01-02 11:29:00,
2013-01-02 05:34:00,49.8,47.3,-100.00,SSE,157,2.7,5.5,91,0.00,,,0.00,,2013-01-02 11:34:00,
2013-01-02 05:39:00,49.8,47.4,-100.00,South,180,3.3,6.0,91,0.00,,,0.00,,2013-01-02 11:39:00,
2013-01-02 05:44:00,49.8,47.5,-100.00,SSW,202,3.7,8.6,91,0.00,,,0.00,,2013-01-02 11:44:00,
2013-01-02 05:49:00,49.7,47.1,-100.00,SSW,202,3.6,9.3,90,0.00,,,0.00,,2013-01-02 11:49:00,
2013-01-02 05:54:00,49.8,47.3,-100.00,South,180,3.8,9.3,91,0.00,,,0.00,,2013-01-02 11:54:00,
2013-01-02 05:59:00,49.8,47.8,-100.00,South,180,3.6,6.9,92,0.00,,,0.00,,2013-01-02 11:59:00,
2013-01-02 06:04:00,49.8,47.1,-100.00,South,180,3.0,6.2,90,0.00,,,0.00,,2013-01-02 12:04:00,
2013-01-02 06:09:00,49.7,46.3,-100.00,SSE,157,3.1,7.9,88,0.00,,,0.00,,2013-01-02 12:09:00,
2013-01-02 06:15:00,49.7,47.0,-100.00,South,180,4.0,9.0,90,0.00,,,0.00,,2013-01-02 12:15:00,
2013-01-02 06:20:00,49.7,46.4,-100.00,South,180,4.0,8.0,88,0.00,,,0.00,,2013-01-02 12:20:00,
2013-01-02 06:25:00,49.7,46.9,-100.00,South,180,4.3,8.0,89,0.00,,,0.00,,2013-01-02 12:25:00,
2013-01-02 06:30:00,49.7,46.6,-100.00,South,180,5.0,8.7,89,0.00,,,0.00,,2013-01-02 12:30:00,
2013-01-02 06:35:00,49.7,46.7,-100.00,South,180,5.0,9.0,89,0.00,,,0.00,,2013-01-02 12:35:00,
2013-01-02 06:40:00,49.5,46.5,-100.00,SSW,202,4.8,9.0,89,0.00,,,0.00,,2013-01-02 12:40:00,
2013-01-02 06:45:00,49.4,46.4,-100.00,South,180,4.3,7.7,88,0.00,,,0.00,,2013-01-02 12:45:00,
2013-01-02 06:50:00,49.4,46.5,-100.00,SE,135,3.3,6.9,89,0.00,,,0.00,,2013-01-02 12:50:00,
2013-01-02 06:55:00,49.3,46.8,-100.00,SE,135,3.1,6.2,90,0.00,,,0.00,,2013-01-02 12:55:00,
2013-01-02 07:00:00,49.1,46.3,-100.00,SSE,157,4.1,8.9,89,0.00,,,0.00,,2013-01-02 13:00:00,
2013-01-02 07:05:00,49.0,46.3,-100.00,SSE,157,4.2,8.9,90,0.00,,,0.00,,2013-01-02 13:05:00,
2013-01-02 07:10:00,48.9,46.5,-100.00,South,180,4.3,10.1,91,0.00,,,0.00,,2013-01-02 13:10:00,
2013-01-02 07:15:00,48.9,46.8,-100.00,South,180,5.2,10.1,92,0.00,,,0.00,,2013-01-02 13:15:00,
2013-01-02 07:20:00,48.9,46.1,-100.00,South,180,4.3,7.7,89,0.00,,,0.00,,2013-01-02 13:20:00,
2013-01-02 07:25:00,48.9,46.3,-100.00,SSE,157,3.8,9.1,90,0.00,,,0.00,,2013-01-02 13:25:00,
2013-01-02 07:30:00,49.0,46.2,-100.00,SE,135,3.1,9.1,89,0.00,,,0.00,,2013-01-02 13:30:00,
2013-01-02 07:35:00,48.9,46.1,-100.00,SE,135,3.5,6.9,89,0.00,,,0.00,,2013-01-02 13:35:00,
2013-01-02 07:40:00,49.0,46.4,-100.00,SSE,157,3.6,6.9,90,0.00,,,0.00,,2013-01-02 13:40:00,
2013-01-02 07:45:00,49.0,46.3,-100.00,SE,135,3.0,5.9,90,0.00,,,0.00,,2013-01-02 13:45:00,
2013-01-02 07:50:00,49.0,46.1,-100.00,SSE,157,2.9,5.7,89,0.00,,,0.00,,2013-01-02 13:50:00,
2013-01-02 07:55:00,49.0,46.0,-100.00,SSE,157,3.0,7.9,89,0.00,,,0.00,,2013-01-02 13:55:00,
2013-01-02 08:00:00,49.0,46.5,-100.00,South,180,3.3,7.9,91,0.00,,,0.00,,2013-01-02 14:00:00,
2013-01-02 08:05:00,49.0,46.0,-100.00,South,180,3.8,8.1,89,0.00,,,0.00,,2013-01-02 14:05:00,
2013-01-02 08:10:00,49.0,46.0,-100.00,South,180,3.4,7.1,89,0.00,,,0.00,,2013-01-02 14:10:00,
2013-01-02 08:15:00,48.9,45.9,-100.00,SSW,202,3.8,9.4,89,0.00,,,0.00,,2013-01-02 14:15:00,
2013-01-02 08:20:00,48.9,46.7,-100.00,SSW,202,3.8,9.4,92,0.00,,,0.00,,2013-01-02 14:20:00,
2013-01-02 08:25:00,48.9,46.1,-100.00,SSW,202,3.8,7.3,89,0.00,,,0.00,,2013-01-02 14:25:00,
2013-01-02 08:30:00,48.9,46.2,-100.00,SSW,202,4.5,9.1,90,0.00,,,0.00,,2013-01-02 14:30:00,
2013-01-02 08:35:00,49.0,46.0,-100.00,SSE,157,3.7,8.8,89,0.00,,,0.00,,2013-01-02 14:35:00,
2013-01-02 08:40:00,48.9,46.1,-100.00,SSE,157,2.9,5.9,89,0.00,,,0.00,,2013-01-02 14:40:00,
2013-01-02 08:45:00,48.7,46.0,-100.00,South,180,4.0,7.4,90,0.00,,,0.00,,2013-01-02 14:45:00,
2013-01-02 08:50:00,48.5,45.8,-100.00,South,180,4.8,8.6,90,0.00,,,0.00,,2013-01-02 14:50:00,
2013-01-02 08:55:00,48.4,46.2,-100.00,South,180,4.4,8.6,91,0.00,,,0.00,,2013-01-02 14:55:00,
2013-01-02 09:00:00,48.3,45.8,-100.00,SSE,157,4.5,8.0,90,0.00,,,0.00,,2013-01-02 15:00:00,
2013-01-02 09:05:00,48.5,46.0,-100.00,SSW,202,4.5,8.0,90,0.00,,,0.00,,2013-01-02 15:05:00,
2013-01-02 09:10:00,48.5,45.8,-100.00,SSW,202,4.2,7.7,90,0.00,,,0.00,,2013-01-02 15:10:00,
2013-01-02 09:15:00,48.8,45.9,-100.00,SSW,202,3.4,6.0,89,0.00,,,0.00,,2013-01-02 15:15:00,
2013-01-02 09:20:00,49.0,46.3,-100.00,South,180,3.3,5.9,90,0.00,,,0.00,,2013-01-02 15:20:00,
2013-01-02 09:25:00,48.9,46.0,-100.00,SSE,157,3.6,5.9,89,0.00,,,0.00,,2013-01-02 15:25:00,
2013-01-02 09:30:00,49.1,46.2,-100.00,SSE,157,4.1,7.2,89,0.00,,,0.00,,2013-01-02 15:30:00,
2013-01-02 09:35:00,48.9,45.6,-100.00,SSW,202,4.5,7.5,88,0.00,,,0.00,,2013-01-02 15:35:00,
2013-01-02 09:40:00,48.9,45.5,-100.00,South,180,5.3,10.7,88,0.00,,,0.00,,2013-01-02 15:40:00,
2013-01-02 09:46:00,48.8,45.9,-100.00,SSW,202,5.2,10.7,89,0.00,,,0.00,,2013-01-02 15:46:00,
2013-01-02 09:51:00,48.9,45.1,-100.00,South,180,4.8,9.8,86,0.00,,,0.00,,2013-01-02 15:51:00,
2013-01-02 09:56:00,49.0,45.7,-100.00,SSE,157,4.2,8.0,88,0.00,,,0.00,,2013-01-02 15:56:00,
2013-01-02 10:01:00,49.0,45.8,-100.00,SSE,157,4.1,7.5,88,0.00,,,0.00,,2013-01-02 16:01:00,
2013-01-02 10:06:00,49.1,45.8,-100.00,SSE,157,4.3,9.5,88,0.00,,,0.00,,2013-01-02 16:06:00,
2013-01-02 10:11:00,48.9,45.4,-100.00,SSW,202,4.9,9.5,87,0.00,,,0.00,,2013-01-02 16:11:00,
2013-01-02 10:16:00,49.0,45.1,-100.00,South,180,4.8,8.3,86,0.00,,,0.00,,2013-01-02 16:16:00,
2013-01-02 10:21:00,49.2,45.7,-100.00,South,180,4.8,9.8,87,0.00,,,0.00,,2013-01-02 16:21:00,
2013-01-02 10:26:00,49.0,45.2,-100.00,SE,135,4.2,9.8,86,0.00,,,0.00,,2013-01-02 16:26:00,
2013-01-02 10:31:00,49.2,45.5,-100.00,SSE,157,3.9,7.0,86,0.00,,,0.00,,2013-01-02 16:31:00,
2013-01-02 10:36:00,49.2,45.3,-100.00,SSW,202,4.0,7.2,86,0.00,,,0.00,,2013-01-02 16:36:00,
2013-01-02 10:41:00,49.2,46.0,-100.00,SSW,202,4.6,7.2,88,0.00,,,0.00,,2013-01-02 16:41:00,
2013-01-02 10:46:00,49.0,45.7,-100.00,SSW,202,5.1,9.8,88,0.00,,,0.00,,2013-01-02 16:46:00,
2013-01-02 10:51:00,48.8,44.7,-100.00,SSW,202,6.1,11.2,85,0.00,,,0.00,,2013-01-02 16:51:00,
2013-01-02 10:56:00,48.8,45.1,-100.00,SSW,202,5.3,11.2,86,0.00,,,0.00,,2013-01-02 16:56:00,
2013-01-02 11:01:00,49.0,45.3,-100.00,South,180,4.3,9.0,86,0.00,,,0.00,,2013-01-02 17:01:00,
2013-01-02 11:06:00,48.8,44.4,-100.00,South,180,4.5,9.5,84,0.00,,,0.00,,2013-01-02 17:06:00,
2013-01-02 11:11:00,49.2,45.0,-100.00,South,180,4.7,9.5,85,0.00,,,0.00,,2013-01-02 17:11:00,
2013-01-02 11:16:00,49.2,45.1,-100.00,South,180,4.1,7.1,85,0.00,,,0.00,,2013-01-02 17:16:00,
2013-01-02 11:21:00,49.3,44.8,-100.00,SSE,157,4.2,7.1,84,0.00,,,0.00,,2013-01-02 17:21:00,
2013-01-02 11:26:00,49.4,44.5,-100.00,SSW,202,4.2,7.7,82,0.00,,,0.00,,2013-01-02 17:26:00,
2013-01-02 11:31:00,49.4,44.7,-100.00,South,180,4.9,7.9,83,0.00,,,0.00,,2013-01-02 17:31:00,
2013-01-02 11:36:00,49.5,44.5,-100.00,SSE,157,5.0,9.9,82,0.00,,,0.00,,2013-01-02 17:36:00,
2013-01-02 11:41:00,50.0,44.9,-100.00,SSW,202,4.9,10.2,82,0.00,,,0.00,,2013-01-02 17:41:00,
2013-01-02 11:46:00,50.2,45.2,-100.00,South,180,3.9,7.7,82,0.00,,,0.00,,2013-01-02 17:46:00,
2013-01-02 11:51:00,50.1,45.1,-100.00,South,180,3.5,6.7,82,0.00,,,0.00,,2013-01-02 17:51:00,
2013-01-02 11:56:00,50.3,45.1,-100.00,South,180,4.5,8.9,81,0.00,,,0.00,,2013-01-02 17:56:00,
2013-01-02 12:01:00,50.2,44.6,-100.00,SSE,157,4.4,10.0,80,0.00,,,0.00,,2013-01-02 18:01:00,
2013-01-02 12:06:00,50.7,44.4,-100.00,SSE,157,3.9,10.0,78,0.00,,,0.00,,2013-01-02 18:06:00,
2013-01-02 12:11:00,50.6,44.9,-100.00,ESE,112,3.5,7.4,80,0.00,,,0.00,,2013-01-02 18:11:00,
2013-01-02 12:16:00,50.2,44.4,-100.00,ESE,112,3.6,8.4,80,0.00,,,0.00,,2013-01-02 18:16:00,
2013-01-02 12:21:00,50.5,44.7,-100.00,SSE,157,3.6,8.4,80,0.00,,,0.00,,2013-01-02 18:21:00,
2013-01-02 12:26:00,50.1,44.3,-100.00,SSW,202,4.2,9.2,80,0.00,,,0.00,,2013-01-02 18:26:00,
2013-01-02 12:31:00,50.2,44.6,-100.00,South,180,4.0,9.2,80,0.00,,,0.00,,2013-01-02 18:31:00,
2013-01-02 12:36:00,50.0,44.4,-100.00,South,180,4.0,7.5,80,0.00,,,0.00,,2013-01-02 18:36:00,
2013-01-02 12:41:00,50.1,44.8,-100.00,South,180,3.7,7.5,81,0.00,,,0.00,,2013-01-02 18:41:00,
2013-01-02 12:46:00,50.2,45.0,-100.00,South,180,3.2,7.0,82,0.00,,,0.00,,2013-01-02 18:46:00,
2013-01-02 12:51:00,50.0,44.2,-100.00,South,180,3.9,6.9,80,0.00,,,0.00,,2013-01-02 18:51:00,
2013-01-02 12:56:00,50.5,44.9,-100.00,SSE,157,3.4,6.9,81,0.00,,,0.00,,2013-01-02 18:56:00,
2013-01-02 13:01:00,50.3,44.5,-100.00,ESE,112,3.8,7.9,80,0.00,,,0.00,,2013-01-02 19:01:00,
2013-01-02 13:06:00,50.5,44.4,-100.00,SE,135,4.3,7.3,79,0.00,,,0.00,,2013-01-02 19:06:00,
2013-01-02 13:11:00,50.3,44.3,-100.00,SSE,157,4.7,8.6,79,0.00,,,0.00,,2013-01-02 19:11:00,
2013-01-02 13:16:00,50.1,44.3,-100.00,South,180,5.0,8.6,80,0.00,,,0.00,,2013-01-02 19:16:00,
2013-01-02 13:21:00,50.1,44.2,-100.00,South,180,4.3,7.5,79,0.00,,,0.00,,2013-01-02 19:21:00,
2013-01-02 13:26:00,50.6,44.9,-100.00,South,180,3.9,7.1,80,0.00,,,0.00,,2013-01-02 19:26:00,
2013-01-02 13:31:00,50.5,44.2,-100.00,South,180,3.9,7.6,78,0.00,,,0.00,,2013-01-02 19:31:00,
2013-01-02 13:36:00,50.7,44.5,-100.00,SSW,202,4.2,7.6,78,0.00,,,0.00,,2013-01-02 19:36:00,
2013-01-02 13:41:00,50.2,43.8,-100.00,SSW,202,4.3,8.8,78,0.00,,,0.00,,2013-01-02 19:41:00,
2013-01-02 13:46:00,50.2,44.0,-100.00,South,180,4.2,8.8,78,0.00,,,0.00,,2013-01-02 19:46:00,
2013-01-02 13:51:00,50.5,44.1,-100.00,SSE,157,3.3,7.8,78,0.00,,,0.00,,2013-01-02 19:51:00,
2013-01-02 13:56:00,50.6,44.2,-100.00,South,180,2.7,5.1,78,0.00,,,0.00,,2013-01-02 19:56:00,
2013-01-02 14:01:00,50.7,44.5,-100.00,South,180,2.9,5.3,79,0.00,,,0.00,,2013-01-02 20:01:00,
2013-01-02 14:06:00,51.0,45.4,-100.00,SSE,157,3.0,5.7,80,0.00,,,0.00,,2013-01-02 20:06:00,
2013-01-02 14:11:00,50.9,44.7,-100.00,SSE,157,2.6,5.0,78,0.00,,,0.00,,2013-01-02 20:11:00,
2013-01-02 14:16:00,50.6,43.7,-100.00,SSE,157,2.9,5.7,77,0.00,,,0.00,,2013-01-02 20:16:00,
2013-01-02 14:21:00,50.7,44.0,-100.00,SSW,202,3.7,6.2,77,0.00,,,0.00,,2013-01-02 20:21:00,
2013-01-02 14:27:00,50.9,44.7,-100.00,South,180,3.5,6.2,79,0.00,,,0.00,,2013-01-02 20:27:00,
2013-01-02 14:32:00,51.0,44.6,-100.00,South,180,2.7,4.9,78,0.00,,,0.00,,2013-01-02 20:32:00,
2013-01-02 14:37:00,50.7,45.0,-100.00,South,180,3.5,8.3,80,0.00,,,0.00,,2013-01-02 20:37:00,
2013-01-02 14:42:00,50.8,44.2,-100.00,South,180,3.5,7.0,78,0.00,,,0.00,,2013-01-02 20:42:00,
2013-01-02 14:47:00,50.8,44.5,-100.00,SSE,157,3.3,6.2,78,0.00,,,0.00,,2013-01-02 20:47:00,
2013-01-02 14:52:00,50.7,44.1,-100.00,South,180,3.5,6.3,77,0.00,,,0.00,,2013-01-02 20:52:00,
2013-01-02 14:57:00,50.5,44.0,-100.00,SSW,202,3.7,8.1,78,0.00,,,0.00,,2013-01-02 20:57:00,
2013-01-02 15:02:00,50.3,44.4,-100.00,SSW,202,4.6,8.1,79,0.00,,,0.00,,2013-01-02 21:02:00,
2013-01-02 15:07:00,50.2,43.2,-100.00,SSW,202,4.9,9.1,76,0.00,,,0.00,,2013-01-02 21:07:00,
2013-01-02 15:12:00,50.3,44.3,-100.00,SSW,202,4.9,9.8,79,0.00,,,0.00,,2013-01-02 21:12:00,
2013-01-02 15:17:00,50.3,43.6,-100.00,South,180,4.9,9.8,77,0.00,,,0.00,,2013-01-02 21:17:00,
2013-01-02 15:22:00,50.3,43.8,-100.00,South,180,4.0,7.9,78,0.00,,,0.00,,2013-01-02 21:22:00,
2013-01-02 15:27:00,50.5,44.0,-100.00,South,180,3.3,6.5,78,0.00,,,0.00,,2013-01-02 21:27:00,
2013-01-02 15:32:00,50.2,44.6,-100.00,SSW,202,3.7,7.1,80,0.00,,,0.00,,2013-01-02 21:32:00,
2013-01-02 15:37:00,50.1,43.6,-100.00,SSW,202,3.8,7.1,77,0.00,,,0.00,,2013-01-02 21:37:00,
2013-01-02 15:42:00,50.0,44.0,-100.00,SSW,202,3.1,6.2,79,0.00,,,0.00,,2013-01-02 21:42:00,
2013-01-02 15:47:00,50.0,44.2,-100.00,SSW,202,2.8,4.3,80,0.00,,,0.00,,2013-01-02 21:47:00,
2013-01-02 15:52:00,50.0,44.6,-100.00,SSW,202,3.3,8.1,81,0.00,,,0.00,,2013-01-02 21:52:00,
2013-01-02 15:57:00,50.0,44.4,-100.00,SSW,202,3.7,8.1,80,0.00,,,0.00,,2013-01-02 21:57:00,
2013-01-02 16:02:00,50.0,44.7,-100.00,SSW,202,3.3,6.5,81,0.00,,,0.00,,2013-01-02 22:02:00,
2013-01-02 16:07:00,49.8,44.5,-100.00,SSW,202,3.2,5.2,81,0.00,,,0.00,,2013-01-02 22:07:00,
2013-01-02 16:12:00,49.7,44.6,-100.00,SSW,202,3.4,6.4,82,0.00,,,0.00,,2013-01-02 22:12:00,
2013-01-02 16:17:00,49.7,44.7,-100.00,SW,225,3.4,6.4,82,0.00,,,0.00,,2013-01-02 22:17:00,
2013-01-02 16:22:00,49.7,44.6,-100.00,SSW,202,2.6,5.6,82,0.00,,,0.00,,2013-01-02 22:22:00,
2013-01-02 16:27:00,49.7,45.0,-100.00,SSW,202,3.4,8.7,83,0.00,,,0.00,,2013-01-02 22:27:00,
2013-01-02 16:32:00,49.3,44.6,-100.00,SSW,202,4.2,8.3,83,0.00,,,0.00,,2013-01-02 22:32:00,
2013-01-02 16:37:00,49.1,45.5,-100.00,SSW,202,4.4,8.3,87,0.00,,,0.00,,2013-01-02 22:37:00,
2013-01-02 16:42:00,49.0,44.5,-100.00,SSW,202,4.5,8.0,84,0.00,,,0.00,,2013-01-02 22:42:00,
2013-01-02 16:47:00,48.8,44.6,-100.00,SSW,202,4.9,11.4,85,0.00,,,0.00,,2013-01-02 22:47:00,
2013-01-02 16:52:00,48.8,44.0,-100.00,SSW,202,4.2,11.4,83,0.00,,,0.00,,2013-01-02 22:52:00,
2013-01-02 16:57:00,48.7,44.6,-100.00,South,180,3.5,7.8,85,0.00,,,0.00,,2013-01-02 22:57:00,
2013-01-02 17:02:00,48.7,43.4,-100.00,SSW,202,4.1,7.8,81,0.00,,,0.00,,2013-01-02 23:02:00,
2013-01-02 17:07:00,48.5,43.8,-100.00,South,180,3.0,6.8,83,0.00,,,0.00,,2013-01-02 23:07:00,
2013-01-02 17:12:00,48.5,44.0,-100.00,South,180,2.7,6.5,84,0.00,,,0.00,,2013-01-02 23:12:00,
2013-01-02 17:17:00,48.4,43.8,-100.00,South,180,3.3,7.8,83,0.00,,,0.00,,2013-01-02 23:17:00,
2013-01-02 17:22:00,48.3,43.7,-100.00,SSE,157,3.7,7.8,83,0.00,,,0.00,,2013-01-02 23:22:00,
2013-01-02 17:27:00,48.3,43.8,-100.00,South,180,3.1,6.3,84,0.00,,,0.00,,2013-01-02 23:27:00,
2013-01-02 17:32:00,48.3,43.9,-100.00,SSE,157,2.7,6.1,84,0.00,,,0.00,,2013-01-02 23:32:00,
2013-01-02 17:37:00,48.2,43.6,-100.00,SSE,157,3.2,6.5,83,0.00,,,0.00,,2013-01-02 23:37:00,
2013-01-02 17:42:00,48.1,43.7,-100.00,SSE,157,3.2,6.5,84,0.00,,,0.00,,2013-01-02 23:42:00,
2013-01-02 17:47:00,48.1,43.6,-100.00,SSE,157,3.0,5.6,84,0.00,,,0.00,,2013-01-02 23:47:00,
2013-01-02 17:52:00,48.0,43.7,-100.00,SSW,202,3.4,6.0,84,0.00,,,0.00,,2013-01-02 23:52:00,
2013-01-02 17:57:00,48.0,44.4,-100.00,South,180,3.2,6.0,87,0.00,,,0.00,,2013-01-02 23:57:00,
2013-01-02 18:02:00,48.0,43.8,-100.00,South,180,4.1,7.4,85,0.00,,,0.00,,2013-01-03 00:02:00,
2013-01-02 18:07:00,48.0,43.9,-100.00,South,180,3.5,7.2,85,0.00,,,0.00,,2013-01-03 00:07:00,
2013-01-02 18:12:00,47.8,43.4,-100.00,SE,135,3.6,6.7,84,0.00,,,0.00,,2013-01-03 00:12:00,
2013-01-02 18:18:00,47.8,43.8,-100.00,SSE,157,4.4,8.3,86,0.00,,,0.00,,2013-01-03 00:18:00,
2013-01-02 18:23:00,47.6,43.9,-100.00,South,180,4.1,8.3,86,0.00,,,0.00,,2013-01-03 00:23:00,
2013-01-02 18:28:00,47.5,44.0,-100.00,SSE,157,4.3,8.2,87,0.00,,,0.00,,2013-01-03 00:28:00,
2013-01-02 18:33:00,47.5,43.9,-100.00,SSE,157,4.2,8.2,86,0.00,,,0.00,,2013-01-03 00:33:00,
2013-01-02 18:38:00,47.5,43.9,-100.00,South,180,4.0,7.0,86,0.00,,,0.00,,2013-01-03 00:38:00,
2013-01-02 18:43:00,47.4,43.7,-100.00,South,180,4.2,7.1,86,0.00,,,0.00,,2013-01-03 00:43:00,
2013-01-02 18:48:00,47.4,44.0,-100.00,South,180,3.9,7.5,87,0.00,,,0.00,,2013-01-03 00:48:00,
2013-01-02 18:53:00,47.4,44.1,-100.00,SSW,202,4.5,8.5,88,0.00,,,0.00,,2013-01-03 00:53:00,
2013-01-02 18:58:00,47.4,44.7,-100.00,South,180,3.8,8.5,90,0.00,,,0.00,,2013-01-03 00:58:00,
2013-01-02 19:03:00,47.4,43.7,-100.00,South,180,3.4,7.5,86,0.00,,,0.00,,2013-01-03 01:03:00,
2013-01-02 19:08:00,47.3,44.3,-100.00,SSE,157,3.9,6.8,89,0.00,,,0.00,,2013-01-03 01:08:00,
2013-01-02 19:13:00,47.3,44.0,-100.00,South,180,4.0,6.8,88,0.00,,,0.00,,2013-01-03 01:13:00,
2013-01-02 19:18:00,47.2,43.7,-100.00,SSW,202,5.1,9.7,87,0.00,,,0.00,,2013-01-03 01:18:00,
2013-01-02 19:23:00,47.2,43.7,-100.00,South,180,5.2,9.7,87,0.00,,,0.00,,2013-01-03 01:23:00,
2013-01-02 19:28:00,47.1,43.4,-100.00,South,180,4.2,8.9,86,0.00,,,0.00,,2013-01-03 01:28:00,
2013-01-02 19:33:00,47.0,43.3,-100.00,SSW,202,5.2,9.8,86,0.00,,,0.00,,2013-01-03 01:33:00,
2013-01-02 19:38:00,46.8,44.0,-100.00,SSW,202,5.4,9.8,89,0.00,,,0.00,,2013-01-03 01:38:00,
2013-01-02 19:43:00,46.7,43.8,-100.00,South,180,4.7,9.4,89,0.00,,,0.00,,2013-01-03 01:43:00,
2013-01-02 19:49:00,46.7,43.5,-100.00,South,180,3.5,8.4,88,0.00,,,0.00,,2013-01-03 01:49:00,
2013-01-02 19:54:00,46.7,43.4,-100.00,South,180,3.2,6.5,88,0.00,,,0.00,,2013-01-03 01:54:00,
2013-01-02 19:59:00,46.6,43.5,-100.00,SSE,157,4.2,6.9,88,0.00,,,0.00,,2013-01-03 01:59:00,
2013-01-02 20:04:00,46.6,44.3,-100.00,South,180,4.3,7.8,91,0.00,,,0.00,,2013-01-03 02:04:00,
2013-01-02 20:09:00,46.5,43.6,-100.00,South,180,3.2,7.0,89,0.00,,,0.00,,2013-01-03 02:09:00,
2013-01-02 20:14:00,46.5,44.0,-100.00,South,180,2.9,7.1,90,0.00,,,0.00,,2013-01-03 02:14:00,
2013-01-02 20:19:00,46.5,43.1,-100.00,SSW,202,3.6,7.1,87,0.00,,,0.00,,2013-01-03 02:19:00,
2013-01-02 20:24:00,46.4,43.7,-100.00,SSW,202,3.1,5.4,90,0.00,,,0.00,,2013-01-03 02:24:00,
2013-01-02 20:29:00,46.4,43.6,-100.00,South,180,2.7,6.5,89,0.00,,,0.00,,2013-01-03 02:29:00,
2013-01-02 20:34:00,46.4,43.6,-100.00,South,180,2.6,6.5,89,0.00,,,0.00,,2013-01-03 02:34:00,
2013-01-02 20:39:00,46.3,43.4,-100.00,SSE,157,3.0,6.5,89,0.00,,,0.00,,2013-01-03 02:39:00,
2013-01-02 20:44:00,46.2,43.3,-100.00,ESE,112,3.3,8.0,89,0.00,,,0.00,,2013-01-03 02:44:00,
2013-01-02 20:49:00,46.2,43.6,-100.00,SE,135,3.5,8.0,90,0.00,,,0.00,,2013-01-03 02:49:00,
2013-01-02 20:54:00,46.1,43.8,-100.00,SSE,157,3.4,6.6,91,0.00,,,0.00,,2013-01-03 02:54:00,
2013-01-02 20:59:00,46.0,43.7,-100.00,South,180,3.7,6.6,91,0.00,,,0.00,,2013-01-03 02:59:00,
2013-01-02 21:04:00,46.0,44.2,-100.00,South,180,3.2,6.0,93,0.00,,,0.00,,2013-01-03 03:04:00,
2013-01-02 21:09:00,45.8,44.5,-100.00,South,180,3.3,5.7,95,0.00,,,0.00,,2013-01-03 03:09:00,
2013-01-02 21:14:00,45.7,44.0,-100.00,South,180,3.6,6.8,93,0.00,,,0.00,,2013-01-03 03:14:00,
2013-01-02 21:19:00,45.7,44.1,-100.00,South,180,3.6,8.0,94,0.01,,,0.01,,2013-01-03 03:19:00,
2013-01-02 21:24:00,45.6,43.8,-100.00,SSW,202,3.5,8.0,93,0.01,,,0.01,,2013-01-03 03:24:00,
2013-01-02 21:30:00,45.5,43.9,-100.00,South,180,3.5,5.8,94,0.01,,,0.01,,2013-01-03 03:30:00,
2013-01-02 21:35:00,45.4,43.8,-100.00,South,180,3.7,5.8,94,0.01,,,0.01,,2013-01-03 03:35:00,
2013-01-02 21:40:00,45.2,43.6,-100.00,SSE,157,3.6,6.1,94,0.01,,,0.01,,2013-01-03 03:40:00,
2013-01-02 21:45:00,45.2,43.8,-100.00,SSE,157,3.8,6.3,94,0.01,,,0.01,,2013-01-03 03:45:00,
2013-01-02 21:50:00,45.2,43.6,-100.00,South,180,4.0,7.7,94,0.01,,,0.01,,2013-01-03 03:50:00,
2013-01-02 21:55:00,45.0,43.7,-100.00,South,180,3.9,7.7,94,0.01,,,0.01,,2013-01-03 03:55:00,
2013-01-02 22:00:00,44.9,43.7,-100.00,SSE,157,3.4,7.1,95,0.01,,,0.01,,2013-01-03 04:00:00,
2013-01-02 22:05:00,44.8,43.5,-100.00,SSE,157,3.3,6.9,94,0.01,,,0.01,,2013-01-03 04:05:00,
2013-01-02 22:10:00,44.6,43.0,-100.00,South,180,4.1,7.5,93,0.02,,,0.02,,2013-01-03 04:10:00,
2013-01-02 22:15:00,44.5,43.3,-100.00,SSE,157,4.5,7.5,95,0.02,,,0.02,,2013-01-03 04:15:00,
2013-01-02 22:20:00,44.6,42.9,-100.00,SSE,157,3.4,6.8,93,0.02,,,0.03,,2013-01-03 04:20:00,
2013-01-02 22:26:00,44.6,43.9,-100.00,South,180,2.9,5.9,97,0.02,,,0.03,,2013-01-03 04:26:00,
2013-01-02 22:31:00,44.5,43.5,-100.00,SSE,157,3.2,7.5,96,0.02,,,0.03,,2013-01-03 04:31:00,
2013-01-02 22:35:00,44.4,43.7,-100.00,SSE,157,3.9,7.5,97,0.02,,,0.03,,2013-01-03 04:35:00,
2013-01-02 22:40:00,44.4,43.1,-100.00,South,180,3.9,7.6,95,0.03,,,0.04,,2013-01-03 04:40:00,
2013-01-02 22:45:00,44.3,43.3,-100.00,SSW,202,4.0,7.6,96,0.03,,,0.04,,2013-01-03 04:45:00,
2013-01-02 22:50:00,44.3,43.3,-100.00,SSW,202,3.8,6.8,96,0.03,,,0.04,,2013-01-03 04:50:00,
2013-01-02 22:55:00,44.2,43.2,-100.00,South,180,3.1,7.8,96,0.04,,,0.05,,2013-01-03 04:55:00,
2013-01-02 23:00:00,44.0,42.9,-100.00,South,180,3.4,7.8,95,0.04,,,0.05,,2013-01-03 05:00:00,
2013-01-02 23:02:00,44.0,42.9,-100.00,SSE,157,3.3,5.9,95,0.04,,,0.05,,2013-01-03 05:02:00,
2013-01-02 23:03:00,43.9,42.8,-100.00,South,180,3.3,5.9,95,0.04,,,0.05,,2013-01-03 05:03:00,
2013-01-02 23:04:00,44.0,42.9,-100.00,South,180,3.3,5.9,95,0.04,,,0.05,,2013-01-03 05:04:00,
2013-01-02 23:09:00,44.0,43.1,-100.00,South,180,3.4,5.9,96,0.03,,,0.05,,2013-01-03 05:09:00,
2013-01-02 23:14:00,44.0,43.5,-100.00,South,180,3.3,5.7,97,0.04,,,0.06,,2013-01-03 05:14:00,
2013-01-02 23:19:00,43.9,42.8,-100.00,SSW,202,3.6,6.4,95,0.04,,,0.06,,2013-01-03 05:19:00,
2013-01-02 23:24:00,43.9,42.9,-100.00,SSW,202,3.8,7.4,96,0.04,,,0.07,,2013-01-03 05:24:00,
2013-01-02 23:29:00,43.8,42.9,-100.00,South,180,3.7,7.4,96,0.04,,,0.07,,2013-01-03 05:29:00,
2013-01-02 23:34:00,43.7,42.7,-100.00,South,180,3.4,6.0,96,0.04,,,0.07,,2013-01-03 05:34:00,
2013-01-02 23:39:00,43.7,42.6,-100.00,South,180,3.3,6.0,95,0.04,,,0.08,,2013-01-03 05:39:00,
2013-01-02 23:44:00,43.7,43.0,-100.00,SSW,202,3.2,5.3,97,0.05,,,0.09,,2013-01-03 05:44:00,
2013-01-02 23:49:00,43.7,42.8,-100.00,South,180,2.8,6.0,96,0.05,,,0.09,,2013-01-03 05:49:00,
2013-01-02 23:54:00,43.7,42.9,-100.00,South,180,2.6,5.7,97,0.06,,,0.10,,2013-01-03 05:54:00,
2013-01-02 23:59:00,43.7,42.9,-100.00,SSW,202,3.1,6.0,97,0.06,,,0.00,,2013-01-03 05:59:00,